createdAt,value
2023-05-07T00:01:27.254Z,99.90
2023-05-07T00:03:54.108Z,99.90
2023-05-07T00:06:21.104Z,99.90
2023-05-07T00:08:47.764Z,99.90
2023-05-07T00:11:14.470Z,99.90
2023-05-07T00:13:41.115Z,99.90
2023-05-07T00:16:07.789Z,99.90
2023-05-07T00:18:34.560Z,99.90
2023-05-07T00:21:01.151Z,99.90
2023-05-07T00:23:27.832Z,99.90
2023-05-07T00:25:54.422Z,99.90
2023-05-07T00:28:27.563Z,99.90
2023-05-07T00:30:54.179Z,99.90
2023-05-07T00:33:21.828Z,99.90
2023-05-07T00:35:48.572Z,99.90
2023-05-07T00:38:15.789Z,99.90
2023-05-07T00:40:42.436Z,99.90
2023-05-07T00:43:09.905Z,99.90
2023-05-07T00:45:36.617Z,99.90
2023-05-07T00:48:04.138Z,99.90
2023-05-07T00:50:31.739Z,99.90
2023-05-07T00:52:58.760Z,99.90
2023-05-07T00:55:25.419Z,99.90
2023-05-07T00:57:52.232Z,99.90
2023-05-07T01:00:20.735Z,99.90
2023-05-07T01:02:47.706Z,99.90
2023-05-07T01:05:17.719Z,99.90
2023-05-07T01:07:45.454Z,99.90
2023-05-07T01:10:13.392Z,99.90
2023-05-07T01:12:41.686Z,99.90
2023-05-07T01:15:09.916Z,99.90
2023-05-07T01:17:42.200Z,99.90
2023-05-07T01:20:11.368Z,99.90
2023-05-07T01:22:39.632Z,99.90
2023-05-07T01:25:08.249Z,99.90
2023-05-07T01:27:36.451Z,99.90
2023-05-07T01:30:04.250Z,99.90
2023-05-07T01:32:44.987Z,99.90
2023-05-07T01:35:14.749Z,99.90
2023-05-07T01:37:42.110Z,99.90
2023-05-07T01:40:09.772Z,99.90
2023-05-07T01:42:36.760Z,99.90
2023-05-07T01:45:03.559Z,99.90
2023-05-07T01:47:31.086Z,99.90
2023-05-07T01:49:58.312Z,99.90
2023-05-07T01:52:26.152Z,99.90
2023-05-07T01:54:52.788Z,99.90
2023-05-07T01:57:19.427Z,99.90
2023-05-07T01:59:46.337Z,99.90
2023-05-07T02:02:13.034Z,99.90
2023-05-07T02:04:39.762Z,99.90
2023-05-07T02:07:06.436Z,99.90
2023-05-07T02:09:33.065Z,99.90
2023-05-07T02:11:59.647Z,99.90
2023-05-07T02:14:27.029Z,99.90
2023-05-07T02:16:53.749Z,99.90
2023-05-07T02:19:22.091Z,99.90
2023-05-07T02:21:49.064Z,99.90
2023-05-07T02:24:15.894Z,99.90
2023-05-07T02:26:42.569Z,99.90
2023-05-07T02:29:09.209Z,99.90
2023-05-07T02:31:35.970Z,99.90
2023-05-07T02:34:02.817Z,99.90
2023-05-07T02:36:29.669Z,99.90
2023-05-07T02:38:56.314Z,99.90
2023-05-07T02:41:22.952Z,99.90
2023-05-07T02:43:49.638Z,99.90
2023-05-07T02:46:16.844Z,99.90
2023-05-07T02:48:43.963Z,99.90
2023-05-07T02:51:10.852Z,99.90
2023-05-07T02:53:37.676Z,99.90
2023-05-07T02:56:04.575Z,99.90
2023-05-07T02:58:31.338Z,99.90
2023-05-07T03:00:58.280Z,99.90
2023-05-07T03:03:25.051Z,99.90
2023-05-07T03:05:51.735Z,99.90
2023-05-07T03:08:18.412Z,99.90
2023-05-07T03:10:45.104Z,99.90
2023-05-07T03:13:11.792Z,99.90
2023-05-07T03:15:38.484Z,99.90
2023-05-07T03:18:05.255Z,99.90
2023-05-07T03:20:32.280Z,99.90
2023-05-07T03:22:59.085Z,99.90
2023-05-07T03:25:25.963Z,99.90
2023-05-07T03:27:52.600Z,99.90
2023-05-07T03:30:19.888Z,99.90
2023-05-07T03:32:46.811Z,99.90
2023-05-07T03:35:13.497Z,99.90
2023-05-07T03:37:40.419Z,99.90
2023-05-07T03:40:08.579Z,99.90
2023-05-07T03:42:35.490Z,99.90
2023-05-07T03:45:02.132Z,99.90
2023-05-07T03:47:28.761Z,99.90
2023-05-07T03:49:56.138Z,99.90
2023-05-07T03:52:26.764Z,99.90
2023-05-07T03:54:54.346Z,99.90
2023-05-07T03:57:21.651Z,99.90
2023-05-07T03:59:48.391Z,99.90
2023-05-07T04:02:15.157Z,99.90
2023-05-07T04:04:41.928Z,99.90
2023-05-07T04:07:08.539Z,99.90
2023-05-07T04:09:35.183Z,99.90
2023-05-07T04:12:02.347Z,99.90
2023-05-07T04:14:29.047Z,99.90
2023-05-07T04:16:55.776Z,99.90
2023-05-07T04:19:24.573Z,99.90
2023-05-07T04:21:51.244Z,99.90
2023-05-07T04:24:17.938Z,99.90
2023-05-07T04:26:44.640Z,99.90
2023-05-07T04:29:11.238Z,99.90
2023-05-07T04:31:37.929Z,99.90
2023-05-07T04:34:04.549Z,99.90
2023-05-07T04:36:31.787Z,99.90
2023-05-07T04:38:58.384Z,99.90
2023-05-07T04:41:25.028Z,99.90
2023-05-07T04:43:52.505Z,99.90
2023-05-07T04:46:19.163Z,99.90
2023-05-07T04:48:45.840Z,99.90
2023-05-07T04:51:12.465Z,99.90
2023-05-07T04:53:39.156Z,99.90
2023-05-07T04:56:06.304Z,99.90
2023-05-07T04:58:33.131Z,99.90
2023-05-07T05:01:01.367Z,99.90
2023-05-07T05:03:28.320Z,99.90
2023-05-07T05:05:55.104Z,99.90
2023-05-07T05:08:21.816Z,99.90
2023-05-07T05:10:50.725Z,99.90
2023-05-07T05:13:17.675Z,99.90
2023-05-07T05:15:44.514Z,99.90
2023-05-07T05:18:11.194Z,99.90
2023-05-07T05:20:37.931Z,99.90
2023-05-07T05:23:04.568Z,99.90
2023-05-07T05:25:31.590Z,99.90
2023-05-07T05:27:58.202Z,99.90
2023-05-07T05:30:24.845Z,99.90
2023-05-07T05:32:51.734Z,99.90
2023-05-07T05:35:18.361Z,99.90
2023-05-07T05:37:44.993Z,99.90
2023-05-07T05:40:12.321Z,99.90
2023-05-07T05:42:39.096Z,99.90
2023-05-07T05:45:06.351Z,99.90
2023-05-07T05:47:33.082Z,99.90
2023-05-07T05:49:59.860Z,99.90
2023-05-07T05:52:26.520Z,99.90
2023-05-07T05:54:53.218Z,99.90
2023-05-07T05:57:19.989Z,99.90
2023-05-07T05:59:48.268Z,99.90
2023-05-07T06:02:15.012Z,99.90
2023-05-07T06:04:41.897Z,99.90
2023-05-07T06:07:08.593Z,99.90
2023-05-07T06:09:35.226Z,99.90
2023-05-07T06:12:01.938Z,99.90
2023-05-07T06:14:28.556Z,99.90
2023-05-07T06:16:55.396Z,99.90
2023-05-07T06:19:24.813Z,99.90
2023-05-07T06:21:51.562Z,99.90
2023-05-07T06:24:18.227Z,99.90
2023-05-07T06:26:44.836Z,99.90
2023-05-07T06:29:11.575Z,99.90
2023-05-07T06:31:38.284Z,99.90
2023-05-07T06:34:04.921Z,99.90
2023-05-07T06:36:31.706Z,99.90
2023-05-07T06:38:58.360Z,99.90
2023-05-07T06:41:25.161Z,99.90
2023-05-07T06:43:51.750Z,99.90
2023-05-07T06:46:18.539Z,99.90
2023-05-07T06:48:45.289Z,99.90
2023-05-07T06:51:11.917Z,99.90
2023-05-07T06:53:38.497Z,99.90
2023-05-07T06:56:05.488Z,99.90
2023-05-07T06:58:32.124Z,99.90
2023-05-07T07:00:58.953Z,99.90
2023-05-07T07:03:25.865Z,99.90
2023-05-07T07:05:54.125Z,99.90
2023-05-07T07:08:22.330Z,99.90
2023-05-07T07:10:49.279Z,99.90
2023-05-07T07:13:15.965Z,99.90
2023-05-07T07:15:42.715Z,99.90
2023-05-07T07:18:09.485Z,99.90
2023-05-07T07:20:36.116Z,99.90
2023-05-07T07:23:02.780Z,99.90
2023-05-07T07:25:29.425Z,99.90
2023-05-07T07:27:56.048Z,99.90
2023-05-07T07:30:22.735Z,99.90
2023-05-07T07:32:49.360Z,99.90
2023-05-07T07:35:16.031Z,99.90
2023-05-07T07:37:42.644Z,99.90
2023-05-07T07:40:10.372Z,99.90
2023-05-07T07:42:37.235Z,99.90
2023-05-07T07:45:04.327Z,99.90
2023-05-07T07:47:31.074Z,99.90
2023-05-07T07:49:57.926Z,99.90
2023-05-07T07:52:24.616Z,99.90
2023-05-07T07:54:51.244Z,99.90
2023-05-07T07:57:17.877Z,99.90
2023-05-07T07:59:44.614Z,99.90
2023-05-07T08:02:11.337Z,99.90
2023-05-07T08:04:38.706Z,99.90
2023-05-07T08:07:05.589Z,99.90
2023-05-07T08:09:32.183Z,99.90
2023-05-07T08:11:59.044Z,99.90
2023-05-07T08:14:25.885Z,99.90
2023-05-07T08:16:52.518Z,99.90
2023-05-07T08:19:19.135Z,99.90
2023-05-07T08:21:45.937Z,99.90
2023-05-07T08:24:12.775Z,99.90
2023-05-07T08:26:40.405Z,99.90
2023-05-07T08:29:07.288Z,99.90
2023-05-07T08:31:34.086Z,99.90
2023-05-07T08:34:00.981Z,99.90
2023-05-07T08:36:27.648Z,99.90
2023-05-07T08:38:54.443Z,99.90
2023-05-07T08:41:21.302Z,99.90
2023-05-07T08:43:51.272Z,99.90
2023-05-07T08:46:20.486Z,99.90
2023-05-07T08:48:51.077Z,99.90
2023-05-07T08:51:19.908Z,99.90
2023-05-07T08:53:49.250Z,99.90
2023-05-07T08:56:16.892Z,99.90
2023-05-07T08:58:44.702Z,99.90
2023-05-07T09:01:14.851Z,99.90
2023-05-07T09:03:42.750Z,99.90
2023-05-07T09:06:09.461Z,99.90
2023-05-07T09:08:36.783Z,99.90
2023-05-07T09:11:03.939Z,99.90
2023-05-07T09:13:31.137Z,99.90
2023-05-07T09:15:57.818Z,99.90
2023-05-07T09:18:27.483Z,99.90
2023-05-07T09:20:54.116Z,99.90
2023-05-07T09:23:21.918Z,99.90
2023-05-07T09:25:48.518Z,99.90
2023-05-07T09:28:15.286Z,99.90
2023-05-07T09:30:41.899Z,99.90
2023-05-07T09:33:08.610Z,99.90
2023-05-07T09:35:35.293Z,99.90
2023-05-07T09:38:04.440Z,99.90
2023-05-07T09:40:32.007Z,99.90
2023-05-07T09:43:11.218Z,99.90
2023-05-07T09:45:38.425Z,99.90
2023-05-07T09:48:07.775Z,99.90
2023-05-07T09:50:38.747Z,99.90
2023-05-07T09:53:05.947Z,99.90
2023-05-07T09:55:32.637Z,99.90
2023-05-07T09:58:00.544Z,99.90
2023-05-07T10:00:28.672Z,99.90
2023-05-07T10:02:58.606Z,99.90
2023-05-07T10:05:26.261Z,99.90
2023-05-07T10:07:55.011Z,99.90
2023-05-07T10:10:22.909Z,99.90
2023-05-07T10:12:50.727Z,99.90
2023-05-07T10:15:18.106Z,99.90
2023-05-07T10:17:45.930Z,99.90
2023-05-07T10:20:12.832Z,99.40
2023-05-07T10:22:45.699Z,99.60
2023-05-07T10:25:33.374Z,99.90
2023-05-07T10:28:08.369Z,99.60
2023-05-07T10:31:08.714Z,99.30
2023-05-07T10:33:37.318Z,99.50
2023-05-07T10:36:05.538Z,98.20
2023-05-07T10:38:32.506Z,97.50
2023-05-07T10:40:59.401Z,97.80
2023-05-07T10:43:26.153Z,97.10
2023-05-07T10:46:18.783Z,96.20
2023-05-07T10:49:07.313Z,95.60
2023-05-07T10:51:35.281Z,95.20
2023-05-07T10:54:10.808Z,95.10
2023-05-07T10:56:44.001Z,95.10
2023-05-07T10:59:28.173Z,93.70
2023-05-07T11:02:00.178Z,92.70
2023-05-07T11:04:28.316Z,94.60
2023-05-07T11:07:07.230Z,94.90
2023-05-07T11:09:52.446Z,95.00
2023-05-07T11:12:37.505Z,93.50
2023-05-07T11:15:08.160Z,93.30
2023-05-07T11:17:37.296Z,92.80
2023-05-07T11:20:05.588Z,91.90
2023-05-07T11:22:32.603Z,92.00
2023-05-07T11:25:04.016Z,87.00
2023-05-07T11:27:30.971Z,90.60
2023-05-07T11:29:57.940Z,90.10
2023-05-07T11:32:30.858Z,88.40
2023-05-07T11:34:59.283Z,86.90
2023-05-07T11:37:27.766Z,88.10
2023-05-07T11:40:10.319Z,88.00
2023-05-07T11:42:44.126Z,84.50
2023-05-07T11:45:11.748Z,84.70
2023-05-07T11:47:38.731Z,83.50
2023-05-07T11:50:11.481Z,86.70
2023-05-07T11:52:40.092Z,83.80
2023-05-07T11:55:08.898Z,85.40
2023-05-07T11:57:36.212Z,88.50
2023-05-07T12:00:05.423Z,87.70
2023-05-07T12:02:32.524Z,88.10
2023-05-07T12:05:01.893Z,88.10
2023-05-07T12:07:28.604Z,86.70
2023-05-07T12:09:55.379Z,86.50
2023-05-07T12:12:22.013Z,87.00
2023-05-07T12:14:49.411Z,84.80
2023-05-07T12:17:17.325Z,86.70
2023-05-07T12:19:45.684Z,89.30
2023-05-07T12:22:12.900Z,90.00
2023-05-07T12:24:46.368Z,90.30
2023-05-07T12:27:13.693Z,90.00
2023-05-07T12:29:41.854Z,87.70
2023-05-07T12:32:17.981Z,90.00
2023-05-07T12:34:52.021Z,89.50
2023-05-07T12:37:25.789Z,86.00
2023-05-07T12:40:10.260Z,83.90
2023-05-07T12:42:37.864Z,87.30
2023-05-07T12:45:17.033Z,90.00
2023-05-07T12:47:48.223Z,90.60
2023-05-07T12:50:16.419Z,89.50
2023-05-07T12:52:45.376Z,89.70
2023-05-07T12:55:15.968Z,88.70
2023-05-07T12:57:44.805Z,87.60
2023-05-07T13:00:12.088Z,86.40
2023-05-07T13:02:40.388Z,86.50
2023-05-07T13:05:08.015Z,89.70
2023-05-07T13:07:34.927Z,88.60
2023-05-07T13:10:02.402Z,89.40
2023-05-07T13:12:29.164Z,90.20
2023-05-07T13:14:55.960Z,87.90
2023-05-07T13:17:22.795Z,86.70
2023-05-07T13:19:49.484Z,87.40
2023-05-07T13:22:16.119Z,87.90
2023-05-07T13:24:44.583Z,85.30
2023-05-07T13:27:11.366Z,86.10
2023-05-07T13:29:38.008Z,86.30
2023-05-07T13:32:05.017Z,85.30
2023-05-07T13:34:31.696Z,83.40
2023-05-07T13:36:58.460Z,81.70
2023-05-07T13:39:25.080Z,82.90
2023-05-07T13:41:51.861Z,82.20
2023-05-07T13:44:18.508Z,78.20
2023-05-07T13:46:45.163Z,80.30
2023-05-07T13:49:13.399Z,82.70
2023-05-07T13:51:40.000Z,82.70
2023-05-07T13:54:06.704Z,81.00
2023-05-07T13:56:33.409Z,81.50
2023-05-07T13:59:00.983Z,80.70
2023-05-07T14:01:28.274Z,79.70
2023-05-07T14:03:55.128Z,79.90
2023-05-07T14:06:22.782Z,79.90
2023-05-07T14:08:49.418Z,74.70
2023-05-07T14:11:16.074Z,79.20
2023-05-07T14:13:42.731Z,77.30
2023-05-07T14:16:09.448Z,80.50
2023-05-07T14:18:38.002Z,83.00
2023-05-07T14:21:07.073Z,80.70
2023-05-07T14:23:34.120Z,80.50
2023-05-07T14:26:00.774Z,81.80
2023-05-07T14:28:27.407Z,81.30
2023-05-07T14:30:54.062Z,82.50
2023-05-07T14:33:20.723Z,82.30
2023-05-07T14:35:49.673Z,84.40
2023-05-07T14:38:16.652Z,82.20
2023-05-07T14:40:43.513Z,84.10
2023-05-07T14:43:10.251Z,87.60
2023-05-07T14:45:36.902Z,86.50
2023-05-07T14:48:04.022Z,85.80
2023-05-07T14:50:30.837Z,86.80
2023-05-07T14:52:57.508Z,86.60
2023-05-07T14:55:24.199Z,87.60
2023-05-07T14:57:50.949Z,85.60
2023-05-07T15:00:17.748Z,87.60
2023-05-07T15:02:44.482Z,87.50
2023-05-07T15:05:11.416Z,87.80
2023-05-07T15:07:38.268Z,87.80
2023-05-07T15:10:05.399Z,87.00
2023-05-07T15:12:32.077Z,87.90
2023-05-07T15:14:58.796Z,89.10
2023-05-07T15:17:25.633Z,88.60
2023-05-07T15:19:54.390Z,89.10
2023-05-07T15:22:22.480Z,84.50
2023-05-07T15:24:49.170Z,86.10
2023-05-07T15:27:15.900Z,87.80
2023-05-07T15:29:43.962Z,90.10
2023-05-07T15:32:11.375Z,90.60
2023-05-07T15:34:38.174Z,90.70
2023-05-07T15:37:04.835Z,91.00
2023-05-07T15:39:31.903Z,90.90
2023-05-07T15:41:58.629Z,91.60
2023-05-07T15:44:29.558Z,91.70
2023-05-07T15:46:56.247Z,91.60
2023-05-07T15:49:23.114Z,93.00
2023-05-07T15:51:51.727Z,92.80
2023-05-07T15:54:20.940Z,92.30
2023-05-07T15:56:47.950Z,93.10
2023-05-07T15:59:16.381Z,93.10
2023-05-07T16:01:43.516Z,93.30
2023-05-07T16:04:10.824Z,93.30
2023-05-07T16:06:37.540Z,93.90
2023-05-07T16:09:04.211Z,93.20
2023-05-07T16:11:30.863Z,94.00
2023-05-07T16:13:57.565Z,96.90
2023-05-07T16:16:26.618Z,99.90
2023-05-07T16:18:53.327Z,99.90
2023-05-07T16:21:20.030Z,99.90
2023-05-07T16:23:46.947Z,99.90
2023-05-07T16:26:14.564Z,99.90
2023-05-07T16:28:41.218Z,99.90
2023-05-07T16:31:08.631Z,99.90
2023-05-07T16:33:36.025Z,99.90
2023-05-07T16:36:03.392Z,99.90
2023-05-07T16:38:33.024Z,99.90
2023-05-07T16:41:00.023Z,99.90
2023-05-07T16:43:26.852Z,99.90
2023-05-07T16:45:53.770Z,99.90
2023-05-07T16:48:21.237Z,99.90
2023-05-07T16:50:48.024Z,99.90
2023-05-07T16:53:14.877Z,99.90
2023-05-07T16:55:41.634Z,99.90
2023-05-07T16:58:11.307Z,99.90
2023-05-07T17:00:50.170Z,99.90
2023-05-07T17:03:18.846Z,99.90
2023-05-07T17:05:45.890Z,99.90
2023-05-07T17:08:13.639Z,99.90
2023-05-07T17:10:41.172Z,99.90
2023-05-07T17:13:07.922Z,99.90
2023-05-07T17:15:34.609Z,99.90
2023-05-07T17:18:01.311Z,99.90
2023-05-07T17:20:28.642Z,99.90
2023-05-07T17:22:55.643Z,99.90
2023-05-07T17:25:23.311Z,99.90
2023-05-07T17:27:50.494Z,99.90
2023-05-07T17:30:17.729Z,99.90
2023-05-07T17:32:44.406Z,99.90
2023-05-07T17:35:11.160Z,99.90
2023-05-07T17:37:37.948Z,99.90
2023-05-07T17:40:05.320Z,99.90
2023-05-07T17:42:32.071Z,99.90
2023-05-07T17:44:58.772Z,99.90
2023-05-07T17:47:25.443Z,99.90
2023-05-07T17:49:52.141Z,99.90
2023-05-07T17:52:18.733Z,99.90
2023-05-07T17:54:45.654Z,99.90
2023-05-07T17:57:12.300Z,99.90
2023-05-07T17:59:40.084Z,99.90
2023-05-07T18:02:06.952Z,99.90
2023-05-07T18:04:33.627Z,99.90
2023-05-07T18:07:00.317Z,99.90
2023-05-07T18:09:27.062Z,99.90
2023-05-07T18:11:53.925Z,99.90
2023-05-07T18:14:24.323Z,99.90
2023-05-07T18:16:51.256Z,99.90
2023-05-07T18:19:18.051Z,99.90
2023-05-07T18:21:44.678Z,99.90
2023-05-07T18:24:11.443Z,99.90
2023-05-07T18:26:38.211Z,99.90
2023-05-07T18:29:04.878Z,99.90
2023-05-07T18:31:31.513Z,99.90
2023-05-07T18:33:58.194Z,99.90
2023-05-07T18:36:25.062Z,99.90
2023-05-07T18:38:52.458Z,99.90
2023-05-07T18:41:19.159Z,99.90
2023-05-07T18:43:45.957Z,99.90
2023-05-07T18:46:12.738Z,99.90
2023-05-07T18:48:39.860Z,99.90
2023-05-07T18:51:08.369Z,99.90
2023-05-07T18:53:35.016Z,99.90
2023-05-07T18:56:01.794Z,99.90
2023-05-07T18:58:28.413Z,99.90
2023-05-07T19:00:55.843Z,99.90
2023-05-07T19:03:22.649Z,99.90
2023-05-07T19:05:49.334Z,99.90
2023-05-07T19:08:15.964Z,99.90
2023-05-07T19:10:42.651Z,99.90
2023-05-07T19:13:09.366Z,99.90
2023-05-07T19:15:36.061Z,99.90
2023-05-07T19:18:02.768Z,99.90
2023-05-07T19:20:29.781Z,99.90
2023-05-07T19:22:56.842Z,99.90
2023-05-07T19:25:23.680Z,99.90
2023-05-07T19:27:51.166Z,99.90
2023-05-07T19:30:18.009Z,99.90
2023-05-07T19:32:44.639Z,99.90
2023-05-07T19:35:11.577Z,99.90
2023-05-07T19:37:38.871Z,99.90
2023-05-07T19:40:06.550Z,99.90
2023-05-07T19:42:33.278Z,99.90
2023-05-07T19:45:00.114Z,99.90
2023-05-07T19:47:26.861Z,99.90
2023-05-07T19:49:53.664Z,99.90
2023-05-07T19:52:20.400Z,99.90
2023-05-07T19:54:47.230Z,99.90
2023-05-07T19:57:14.365Z,99.90
2023-05-07T19:59:41.164Z,99.90
2023-05-07T20:02:07.909Z,99.90
2023-05-07T20:04:38.043Z,99.90
2023-05-07T20:07:05.722Z,99.90
2023-05-07T20:09:32.538Z,99.90
2023-05-07T20:11:59.190Z,99.90
2023-05-07T20:14:27.232Z,99.90
2023-05-07T20:16:53.982Z,99.90
2023-05-07T20:19:20.791Z,99.90
2023-05-07T20:21:47.401Z,99.90
2023-05-07T20:24:14.299Z,99.90
2023-05-07T20:26:41.309Z,99.90
2023-05-07T20:29:08.077Z,99.90
2023-05-07T20:31:35.264Z,99.90
2023-05-07T20:34:02.533Z,99.90
2023-05-07T20:36:29.654Z,99.90
2023-05-07T20:38:56.311Z,99.90
2023-05-07T20:41:25.435Z,99.90
2023-05-07T20:43:52.295Z,99.90
2023-05-07T20:46:22.659Z,99.90
2023-05-07T20:48:49.995Z,99.90
2023-05-07T20:51:16.812Z,99.90
2023-05-07T20:53:48.023Z,99.90
2023-05-07T20:56:15.804Z,99.90
2023-05-07T20:58:42.411Z,99.90
2023-05-07T21:01:09.360Z,99.90
2023-05-07T21:03:36.177Z,99.90
2023-05-07T21:06:04.085Z,99.90
2023-05-07T21:08:30.960Z,99.90
2023-05-07T21:10:57.742Z,99.90
2023-05-07T21:13:24.592Z,99.90
2023-05-07T21:15:51.466Z,99.90
2023-05-07T21:18:19.066Z,99.90
2023-05-07T21:20:45.712Z,99.90
2023-05-07T21:23:12.317Z,99.90
2023-05-07T21:25:40.873Z,99.90
2023-05-07T21:28:08.776Z,99.90
2023-05-07T21:30:36.231Z,99.90
2023-05-07T21:33:03.056Z,99.90
2023-05-07T21:35:29.886Z,99.90
2023-05-07T21:37:56.523Z,99.90
2023-05-07T21:40:23.150Z,99.90
2023-05-07T21:42:49.785Z,99.90
2023-05-07T21:45:16.521Z,99.90
2023-05-07T21:47:43.175Z,99.90
2023-05-07T21:50:10.557Z,99.90
2023-05-07T21:52:37.798Z,99.90
2023-05-07T21:55:04.836Z,99.90
2023-05-07T21:57:31.591Z,99.90
2023-05-07T21:59:58.249Z,99.90
2023-05-07T22:02:25.755Z,99.90
2023-05-07T22:04:52.660Z,99.90
2023-05-07T22:07:19.313Z,99.90
2023-05-07T22:09:45.924Z,99.90
2023-05-07T22:12:12.616Z,99.90
2023-05-07T22:14:39.295Z,99.90
2023-05-07T22:17:05.920Z,99.90
2023-05-07T22:19:32.585Z,99.90
2023-05-07T22:21:59.877Z,99.90
2023-05-07T22:24:26.494Z,99.90
2023-05-07T22:26:53.166Z,99.90
2023-05-07T22:29:21.194Z,99.90
2023-05-07T22:31:47.839Z,99.90
2023-05-07T22:34:14.528Z,99.90
2023-05-07T22:36:41.252Z,99.90
2023-05-07T22:39:09.795Z,99.90
2023-05-07T22:41:36.662Z,99.90
2023-05-07T22:44:03.373Z,99.90
2023-05-07T22:46:30.203Z,99.90
2023-05-07T22:48:56.909Z,99.90
2023-05-07T22:51:23.562Z,99.90
2023-05-07T22:53:50.184Z,99.90
2023-05-07T22:56:16.864Z,99.90
2023-05-07T22:58:43.493Z,99.90
2023-05-07T23:01:18.645Z,99.90
2023-05-07T23:03:45.486Z,99.90
2023-05-07T23:06:12.661Z,99.90
2023-05-07T23:08:39.375Z,99.90
2023-05-07T23:11:06.174Z,99.90
2023-05-07T23:13:32.860Z,99.90
2023-05-07T23:15:59.460Z,99.90
2023-05-07T23:18:27.958Z,99.90
2023-05-07T23:20:54.948Z,99.90
2023-05-07T23:23:22.075Z,99.90
2023-05-07T23:25:52.354Z,99.90
2023-05-07T23:28:19.103Z,99.90
2023-05-07T23:30:45.884Z,99.90
2023-05-07T23:33:12.599Z,99.90
2023-05-07T23:35:39.175Z,99.90
2023-05-07T23:38:05.862Z,99.90
2023-05-07T23:40:32.452Z,99.90
2023-05-07T23:42:59.078Z,99.90
2023-05-07T23:45:25.753Z,99.90
2023-05-07T23:47:52.470Z,99.90
2023-05-07T23:50:19.182Z,99.90
2023-05-07T23:52:45.938Z,99.90
2023-05-07T23:55:13.712Z,99.90
2023-05-07T23:57:40.343Z,99.90
